PWSweather.com
Personal Weather Stations
Station Observations
OAK1E
Piedmont Ave District, Oakland, CA 94611

Piedmont Ave DistrictOakland, CA 94611

Lat: 37.832205, Lon: -122.250229

Elevation: 176

Station Type: Davis Vantage Pro 2

http://www.mayacamaswx.com/Oakland1E/Oakland1E.htm

Latest ConditionsUpdated 5:10:00 AM PDT Saturday, Sep 5, 2015
Currently Today's Max Today's Min Today's Average
Temperature 53.5°F11.9°C 58.2°F14.6°C 53.5°F11.9°C 56.4°F13.6°C
Dew Point 51.2°F10.7°C 54.8°F12.7°C 51.2°F10.7°C 53.5°F11.9°C
Winds Calm Calm Calm ESECalm ESE - Calm Calm
Wind Gusts -- -- - -
Humidity 92% 92% 86% 90%
Pressure 29.91 in1012.9 mb 29.92 in1013.2 mb 29.89 in1012.2 mb -
Hour Temp Dew Point Humidity Winds Wind Gusts Pressure Precip Precip Rate Daily Precip Total
05:10 AM 53.5°F11.9°C 51.2°F10.7°C 92% Calm Calm -- 29.91 in1012.9 mb - 0.00 in0.0 mm 0.00 in0.0 mm
05:00 AM 53.7°F12.1°C 51.4°F10.8°C 92% Calm Calm -- 29.91 in1012.9 mb - 0.00 in0.0 mm 0.00 in0.0 mm
04:50 AM 53.9°F12.2°C 51.6°F10.9°C 92% Calm Calm -- 29.91 in1012.9 mb - 0.00 in0.0 mm 0.00 in0.0 mm
04:40 AM 54.1°F12.3°C 51.8°F11.0°C 92% Calm Calm -- 29.92 in1013.2 mb - 0.00 in0.0 mm 0.00 in0.0 mm
04:30 AM 54.3°F12.4°C 52.0°F11.1°C 92% Calm Calm -- 29.91 in1012.9 mb - 0.00 in0.0 mm 0.00 in0.0 mm
04:20 AM 54.5°F12.5°C 52.2°F11.2°C 92% Calm Calm -- 29.91 in1012.9 mb - 0.00 in0.0 mm 0.00 in0.0 mm
04:10 AM 54.8°F12.7°C 52.5°F11.4°C 92% Calm Calm -- 29.91 in1012.9 mb - 0.00 in0.0 mm 0.00 in0.0 mm
04:00 AM 54.8°F12.7°C 52.6°F11.4°C 92% Calm Calm -- 29.91 in1012.9 mb - 0.00 in0.0 mm 0.00 in0.0 mm
03:50 AM 54.9°F12.7°C 52.6°F11.4°C 92% Calm Calm -- 29.91 in1012.9 mb - 0.00 in0.0 mm 0.00 in0.0 mm
03:40 AM 55.1°F12.8°C 52.5°F11.4°C 91% Calm Calm -- 29.91 in1012.9 mb - 0.00 in0.0 mm 0.00 in0.0 mm
03:30 AM 55.4°F13.0°C 52.8°F11.6°C 91% Calm Calm -- 29.91 in1012.9 mb - 0.00 in0.0 mm 0.00 in0.0 mm
03:20 AM 55.7°F13.2°C 53.1°F11.7°C 91% Calm Calm -- 29.91 in1012.9 mb - 0.00 in0.0 mm 0.00 in0.0 mm
03:10 AM 56.0°F13.3°C 53.4°F11.9°C 91% Calm Calm -- 29.91 in1012.9 mb - 0.00 in0.0 mm 0.00 in0.0 mm
03:00 AM 56.3°F13.5°C 53.7°F12.1°C 91% Calm Calm -- 29.91 in1012.9 mb - 0.00 in0.0 mm 0.00 in0.0 mm
02:50 AM 56.5°F13.6°C 53.9°F12.2°C 91% Calm Calm -- 29.90 in1012.5 mb - 0.00 in0.0 mm 0.00 in0.0 mm
02:40 AM 56.8°F13.8°C 54.2°F12.3°C 91% Calm Calm -- 29.91 in1012.9 mb - 0.00 in0.0 mm 0.00 in0.0 mm
02:30 AM 57.0°F13.9°C 54.4°F12.4°C 91% Calm Calm -- 29.91 in1012.9 mb - 0.00 in0.0 mm 0.00 in0.0 mm
02:20 AM 57.2°F14.0°C 54.6°F12.6°C 91% Calm Calm -- 29.90 in1012.5 mb - 0.00 in0.0 mm 0.00 in0.0 mm
02:10 AM 57.4°F14.1°C 54.5°F12.5°C 90% Calm Calm -- 29.90 in1012.5 mb - 0.00 in0.0 mm 0.00 in0.0 mm
02:00 AM 57.6°F14.2°C 54.7°F12.6°C 90% Calm Calm -- 29.89 in1012.2 mb - 0.00 in0.0 mm 0.00 in0.0 mm
01:50 AM 57.6°F14.2°C 54.7°F12.6°C 90% Calm Calm -- 29.89 in1012.2 mb - 0.00 in0.0 mm 0.00 in0.0 mm
01:40 AM 57.7°F14.3°C 54.8°F12.7°C 90% Calm Calm -- 29.89 in1012.2 mb - 0.00 in0.0 mm 0.00 in0.0 mm
01:30 AM 57.8°F14.3°C 54.6°F12.6°C 89% Calm Calm -- 29.89 in1012.2 mb - 0.00 in0.0 mm 0.00 in0.0 mm
01:20 AM 57.8°F14.3°C 54.6°F12.6°C 89% Calm Calm -- 29.89 in1012.2 mb - 0.00 in0.0 mm 0.00 in0.0 mm
01:10 AM 57.8°F14.3°C 54.6°F12.6°C 89% Calm Calm -- 29.89 in1012.2 mb - 0.00 in0.0 mm 0.00 in0.0 mm
01:00 AM 57.9°F14.4°C 54.4°F12.4°C 88% Calm Calm -- 29.89 in1012.2 mb - 0.00 in0.0 mm 0.00 in0.0 mm
12:50 AM 58.0°F14.4°C 54.5°F12.5°C 88% Calm Calm -- 29.89 in1012.2 mb - 0.00 in0.0 mm 0.00 in0.0 mm
12:40 AM 58.0°F14.4°C 54.5°F12.5°C 88% Calm Calm -- 29.89 in1012.2 mb - 0.00 in0.0 mm 0.00 in0.0 mm
12:30 AM 58.0°F14.4°C 54.2°F12.3°C 87% Calm Calm -- 29.89 in1012.2 mb - 0.00 in0.0 mm 0.00 in0.0 mm
12:20 AM 58.1°F14.5°C 54.2°F12.3°C 87% Calm Calm -- 29.89 in1012.2 mb - 0.00 in0.0 mm 0.00 in0.0 mm
12:10 AM 58.1°F14.5°C 53.9°F12.2°C 86% Calm Calm -- 29.89 in1012.2 mb - 0.00 in0.0 mm 0.00 in0.0 mm
12:00 AM 58.2°F14.6°C 54.0°F12.2°C 86% Calm Calm -- 29.89 in1012.2 mb - 0.00 in0.0 mm 0.00 in0.0 mm